Time;durP1;ratioP1;P1;durP2;ratioP2;P2;SDS_P1;SDS_P2;PMS_P1;PMS_P2;Temp;Humidity;BMP_temperature;BMP_pressure;BME280_temperature;BME280_humidity;BME280_pressure;Samples;Min_cycle;Max_cycle;Signal;HPM_P1;HPM_P2
2021/09/28 00:00:22;;;;;;;17.53;12.10;;;;;;;16.41;100.00;96370.75;1023596;28;20023;-70
2021/09/28 00:00:52;;;;;;;15.97;11.77;;;;;;;16.41;100.00;96379.63;1032004;28;20029;-69
2021/09/28 00:01:23;;;;;;;14.70;12.40;;;;;;;16.44;100.00;96370.94;1031720;28;20045;-69
2021/09/28 00:01:53;;;;;;;16.70;12.40;;;;;;;16.43;100.00;96366.66;1024139;28;20515;-69
2021/09/28 00:02:23;;;;;;;15.67;12.60;;;;;;;16.42;100.00;96373.13;1020046;29;20076;-69
2021/09/28 00:02:54;;;;;;;15.50;12.00;;;;;;;16.40;100.00;96377.25;1015976;29;20106;-69
2021/09/28 00:03:24;;;;;;;15.40;12.87;;;;;;;16.43;100.00;96371.22;1012228;29;20061;-70
2021/09/28 00:03:55;;;;;;;16.57;12.90;;;;;;;16.42;100.00;96373.13;1016222;29;20394;-71
2021/09/28 00:04:25;;;;;;;16.63;11.83;;;;;;;16.42;100.00;96372.34;1020077;29;20035;-69
2021/09/28 00:04:55;;;;;;;16.63;11.90;;;;;;;16.41;100.00;96373.44;1019990;29;20098;-69
2021/09/28 00:05:26;;;;;;;19.10;11.47;;;;;;;16.41;100.00;96376.94;1027966;28;20022;-69
2021/09/28 00:05:56;;;;;;;17.40;12.00;;;;;;;16.42;100.00;96373.13;1016047;29;20035;-69
2021/09/28 00:06:27;;;;;;;14.77;11.30;;;;;;;16.45;100.00;96371.75;1016141;29;20016;-70
2021/09/28 00:06:57;;;;;;;17.80;12.50;;;;;;;16.42;100.00;96375.81;1023992;29;20527;-70
2021/09/28 00:07:28;;;;;;;15.83;11.97;;;;;;;16.45;100.00;96377.16;1020032;29;20023;-69
2021/09/28 00:07:58;;;;;;;16.67;11.87;;;;;;;16.37;100.00;96374.03;1023968;29;20457;-70
2021/09/28 00:08:29;;;;;;;16.20;12.93;;;;;;;16.38;100.00;96375.66;1016170;29;20044;-70
2021/09/28 00:08:59;;;;;;;16.03;12.30;;;;;;;16.40;100.00;96379.94;1016104;29;20032;-69
2021/09/28 00:09:29;;;;;;;15.43;12.67;;;;;;;16.41;100.00;96374.22;1016257;29;20471;-70
2021/09/28 00:10:00;;;;;;;15.93;12.70;;;;;;;16.45;100.00;96385.25;1024079;28;20046;-69
2021/09/28 00:10:31;;;;;;;16.57;12.67;;;;;;;16.42;100.00;96378.53;1028134;28;20377;-69
2021/09/28 00:11:02;;;;;;;16.60;12.55;;;;;;;16.36;100.00;96380.50;1031868;28;20435;-70
2021/09/28 00:11:32;;;;;;;17.20;12.20;;;;;;;16.40;100.00;96383.44;1023786;28;20039;-70
2021/09/28 00:12:03;;;;;;;15.87;12.13;;;;;;;16.37;100.00;96381.31;1022943;29;20023;-70
2021/09/28 00:12:34;;;;;;;18.40;12.57;;;;;;;16.36;100.00;96379.72;1019940;29;20071;-70
2021/09/28 00:13:05;;;;;;;16.10;12.50;;;;;;;16.33;100.00;96374.94;1016209;29;20072;-70
2021/09/28 00:13:35;;;;;;;17.23;13.43;;;;;;;16.30;100.00;96380.91;1019941;29;20023;-69
2021/09/28 00:14:06;;;;;;;14.13;11.00;;;;;;;16.30;100.00;96373.63;1023992;29;20427;-69
2021/09/28 00:14:37;;;;;;;14.87;12.10;;;;;;;16.31;100.00;96377.91;1023926;28;20015;-70
2021/09/28 00:15:08;;;;;;;15.52;12.05;;;;;;;16.29;100.00;96376.63;1015933;29;20072;-69
2021/09/28 00:15:38;;;;;;;16.63;12.80;;;;;;;16.27;100.00;96382.28;1019955;29;20020;-70
2021/09/28 00:16:09;;;;;;;17.07;12.67;;;;;;;16.29;100.00;96382.00;1016120;29;20114;-70
2021/09/28 00:16:39;;;;;;;16.17;12.73;;;;;;;16.31;100.00;96377.91;1019933;29;20540;-70
2021/09/28 00:17:10;;;;;;;16.00;13.03;;;;;;;16.33;100.00;96378.44;1016108;29;20072;-69
2021/09/28 00:17:40;;;;;;;16.53;12.60;;;;;;;16.34;100.00;96380.03;1016133;29;20020;-69
2021/09/28 00:18:11;;;;;;;18.83;13.07;;;;;;;16.31;100.00;96383.31;1020071;29;20082;-69
2021/09/28 00:18:41;;;;;;;15.90;12.23;;;;;;;16.29;100.00;96379.31;1024012;28;20035;-70
2021/09/28 00:19:12;;;;;;;16.77;13.63;;;;;;;16.29;100.00;96382.81;1027913;28;20023;-69
2021/09/28 00:19:42;;;;;;;18.63;12.93;;;;;;;16.31;100.00;96375.22;1023930;28;20098;-70
2021/09/28 00:20:13;;;;;;;16.87;12.50;;;;;;;16.34;100.00;96379.22;1023870;29;20107;-69
2021/09/28 00:20:44;;;;;;;16.20;12.50;;;;;;;16.34;100.00;96380.03;1020026;29;20027;-70
2021/09/28 00:21:14;;;;;;;18.33;12.60;;;;;;;16.34;100.00;96376.53;1020091;29;20043;-69
2021/09/28 00:21:44;;;;;;;16.70;12.07;;;;;;;16.32;100.00;96378.72;1023941;28;20023;-69
2021/09/28 00:22:15;;;;;;;17.90;11.60;;;;;;;16.32;100.00;96378.72;1027873;28;20035;-69
2021/09/28 00:22:46;;;;;;;17.67;13.23;;;;;;;16.37;100.00;96378.63;1031914;28;20034;-70
2021/09/28 00:23:16;;;;;;;13.95;11.60;;;;;;;16.39;100.00;96376.44;1027941;28;20085;-70
2021/09/28 00:23:47;;;;;;;15.17;11.63;;;;;;;16.38;100.00;96372.94;1023790;29;20115;-69
2021/09/28 00:24:17;;;;;;;15.27;12.43;;;;;;;16.36;100.00;96374.31;1023652;29;20066;-70
2021/09/28 00:24:48;;;;;;;15.97;12.30;;;;;;;16.36;100.00;96371.63;1023995;28;20023;-69
2021/09/28 00:25:18;;;;;;;17.90;13.30;;;;;;;16.36;100.00;96375.13;1028098;28;20558;-68
2021/09/28 00:25:49;;;;;;;15.70;12.00;;;;;;;16.37;100.00;96373.22;1031799;28;20030;-69
2021/09/28 00:26:19;;;;;;;16.37;12.77;;;;;;;16.32;100.00;96378.72;1032008;28;20057;-69
2021/09/28 00:26:50;;;;;;;16.43;12.00;;;;;;;16.32;100.00;96378.72;1027907;28;20029;-70
2021/09/28 00:27:20;;;;;;;18.97;13.10;;;;;;;16.32;100.00;96371.41;1028084;28;20069;-69
2021/09/28 00:27:50;;;;;;;19.93;12.83;;;;;;;16.36;100.00;96382.41;1031890;28;20037;-69
2021/09/28 00:28:23;;;;;;;17.53;12.40;;;;;;;16.38;100.00;96377.53;1023949;29;20423;-69
2021/09/28 00:28:53;;;;;;;16.98;12.43;;;;;;;16.38;100.00;96375.66;1019965;29;20020;-71
2021/09/28 00:29:24;;;;;;;18.90;13.00;;;;;;;16.38;100.00;96375.66;1023946;29;20019;-71
2021/09/28 00:29:54;;;;;;;20.93;12.83;;;;;;;16.37;100.00;96371.31;1020166;29;20019;-69
2021/09/28 00:30:25;;;;;;;19.30;12.47;;;;;;;16.34;100.00;96379.22;1016348;29;20028;-69
2021/09/28 00:30:55;;;;;;;14.80;11.97;;;;;;;16.31;100.00;96375.22;1019968;29;20019;-70
2021/09/28 00:31:25;;;;;;;15.83;12.53;;;;;;;16.34;100.00;96371.94;1024019;28;20039;-69
2021/09/28 00:31:57;;;;;;;13.87;11.40;;;;;;;16.37;100.00;96375.91;1027986;28;20549;-70
2021/09/28 00:32:27;;;;;;;16.33;11.65;;;;;;;16.37;100.00;96379.41;1023456;28;20019;-70
2021/09/28 00:32:57;;;;;;;16.10;10.93;;;;;;;16.33;100.00;96372.25;1019913;29;20019;-69
2021/09/28 00:33:28;;;;;;;20.50;12.40;;;;;;;16.34;100.00;96381.94;1019858;29;20023;-69
2021/09/28 00:33:58;;;;;;;15.47;11.63;;;;;;;16.35;100.00;96370.84;1019883;29;20011;-69
2021/09/28 00:34:29;;;;;;;15.70;12.50;;;;;;;16.37;100.00;96376.72;1024108;28;20104;-69
2021/09/28 00:34:59;;;;;;;14.10;11.80;;;;;;;16.38;100.00;96377.53;1031903;28;20387;-69
2021/09/28 00:35:30;;;;;;;15.07;11.80;;;;;;;16.41;100.00;96379.63;1023879;29;20487;-70
2021/09/28 00:36:00;;;;;;;14.93;12.07;;;;;;;16.44;100.00;96384.44;1023978;28;20024;-69
2021/09/28 00:36:30;;;;;;;17.40;12.17;;;;;;;16.41;100.00;96378.84;1023810;28;20023;-69
2021/09/28 00:37:01;;;;;;;17.60;12.50;;;;;;;16.40;100.00;96382.63;1019906;29;20020;-69
2021/09/28 00:37:31;;;;;;;15.23;12.17;;;;;;;16.39;100.00;96379.13;1019864;29;20030;-69
2021/09/28 00:38:02;;;;;;;15.50;12.37;;;;;;;16.40;100.00;96386.13;1019844;29;20054;-69
2021/09/28 00:38:32;;;;;;;17.00;12.10;;;;;;;16.40;100.00;96380.72;1019872;29;20023;-69
2021/09/28 00:39:02;;;;;;;14.97;12.10;;;;;;;16.38;100.00;96380.25;1019941;29;20031;-70
2021/09/28 00:39:33;;;;;;;15.63;12.27;;;;;;;16.40;100.00;96383.44;1019926;29;20019;-69
2021/09/28 00:40:04;;;;;;;16.07;11.43;;;;;;;16.43;100.00;96382.03;1023888;28;20019;-69
2021/09/28 00:40:34;;;;;;;15.88;12.50;;;;;;;16.44;100.00;96379.03;1023547;29;20015;-69
2021/09/28 00:41:05;;;;;;;13.60;11.50;;;;;;;16.44;100.00;96380.94;1023780;28;20144;-70
2021/09/28 00:41:35;;;;;;;16.23;12.33;;;;;;;16.44;100.00;96383.66;1023998;29;20027;-69
2021/09/28 00:42:06;;;;;;;20.00;12.87;;;;;;;16.44;100.00;96380.94;1023838;28;20078;-70
2021/09/28 00:42:36;;;;;;;15.70;11.50;;;;;;;16.41;100.00;96381.53;1026516;28;20025;-70
2021/09/28 00:43:07;;;;;;;14.70;12.20;;;;;;;16.41;100.00;96382.31;1019980;29;20086;-70
2021/09/28 00:43:50;;;;;;;16.57;13.20;;;;;;;16.42;100.00;96373.13;1019965;29;20035;-69
2021/09/28 00:44:34;;;;;;;18.10;12.40;;;;;;;16.38;100.00;96382.94;1021806;29;20035;-70
2021/09/28 00:45:07;;;;;;;16.30;11.95;;;;;;;16.38;100.00;96391.03;1026980;28;20128;-69
2021/09/28 00:45:38;;;;;;;18.70;12.40;;;;;;;16.36;100.00;96377.81;1019841;28;20062;-70
2021/09/28 00:46:08;;;;;;;15.50;11.70;;;;;;;16.37;100.00;96384.00;1013755;29;20028;-70
2021/09/28 00:46:39;;;;;;;17.87;11.37;;;;;;;16.38;100.00;96374.84;1012344;29;20053;-70
2021/09/28 00:47:10;;;;;;;18.70;11.73;;;;;;;16.38;100.00;96382.94;1016566;29;20040;-70
2021/09/28 00:47:41;;;;;;;17.80;12.20;;;;;;;16.36;100.00;96377.81;1020018;29;20031;-70
2021/09/28 00:48:11;;;;;;;16.70;11.87;;;;;;;16.35;100.00;96378.13;1019852;29;20028;-69
2021/09/28 00:48:42;;;;;;;18.40;12.37;;;;;;;16.39;100.00;96381.84;1019818;29;20107;-68
2021/09/28 00:49:13;;;;;;;16.98;11.82;;;;;;;16.36;100.00;96383.22;1020267;28;20446;-69
2021/09/28 00:49:46;;;;;;;15.30;11.97;;;;;;;16.37;100.00;96386.72;1027877;28;20023;-69
2021/09/28 00:50:16;;;;;;;15.70;11.93;;;;;;;16.33;100.00;96378.44;1027757;28;20503;-69
2021/09/28 00:50:47;;;;;;;18.00;12.50;;;;;;;16.30;100.00;96383.59;1023824;28;20023;-69
2021/09/28 00:51:17;;;;;;;17.07;12.33;;;;;;;16.26;100.00;96382.59;1015818;29;20029;-69
2021/09/28 00:51:47;;;;;;;16.97;12.63;;;;;;;16.26;100.00;96385.28;1019920;29;20043;-70
2021/09/28 00:52:19;;;;;;;19.43;12.30;;;;;;;16.21;100.00;96382.69;1023883;29;20027;-70
2021/09/28 00:52:49;;;;;;;15.68;11.95;;;;;;;16.22;100.00;96384.28;1015933;29;20024;-70
2021/09/28 00:53:20;;;;;;;19.13;12.07;;;;;;;16.18;100.00;96383.28;1012248;29;20083;-69
2021/09/28 00:53:52;;;;;;;16.23;12.20;;;;;;;16.17;100.00;96378.97;1015917;29;20020;-69
2021/09/28 00:54:23;;;;;;;17.00;12.18;;;;;;;16.21;100.00;96380.00;1016413;29;20102;-69
2021/09/28 00:54:53;;;;;;;14.47;11.47;;;;;;;16.19;100.00;96376.81;1016716;29;20036;-69
2021/09/28 00:55:27;;;;;;;16.10;12.27;;;;;;;16.20;100.00;96381.09;1016271;29;20032;-70
2021/09/28 00:55:58;;;;;;;18.73;12.65;;;;;;;16.15;100.00;96381.19;1012327;29;20060;-70
2021/09/28 00:56:28;;;;;;;14.20;11.07;;;;;;;16.19;100.00;96382.19;1019912;29;20051;-70
2021/09/28 00:56:58;;;;;;;15.00;12.23;;;;;;;16.21;100.00;96383.47;1019841;29;20043;-69
2021/09/28 00:57:29;;;;;;;18.57;12.80;;;;;;;16.20;100.00;96384.59;1020510;28;20031;-70
2021/09/28 00:58:02;;;;;;;16.23;12.30;;;;;;;16.20;100.00;96389.19;1023946;28;20038;-70
2021/09/28 00:58:33;;;;;;;14.18;11.20;;;;;;;16.17;100.00;96387.06;1027748;28;20034;-69
2021/09/28 00:59:03;;;;;;;18.33;11.80;;;;;;;16.18;100.00;96384.09;1019806;29;20394;-69
2021/09/28 00:59:35;;;;;;;15.13;11.80;;;;;;;16.19;100.00;96390.28;1016014;29;20032;-69
2021/09/28 01:00:07;;;;;;;15.40;11.32;;;;;;;16.15;100.00;96391.97;1017156;29;20040;-69
2021/09/28 01:00:38;;;;;;;14.45;11.18;;;;;;;16.16;100.00;96394.34;1024402;28;20035;-69
2021/09/28 01:01:08;;;;;;;15.10;11.37;;;;;;;16.17;100.00;96385.16;1024202;28;20489;-70
2021/09/28 01:01:39;;;;;;;16.10;11.70;;;;;;;16.18;100.00;96386.00;1019920;29;20060;-69
2021/09/28 01:02:10;;;;;;;14.80;11.97;;;;;;;16.15;100.00;96389.25;1019881;29;20012;-69
2021/09/28 01:02:42;;;;;;;14.85;11.45;;;;;;;16.17;100.00;96389.75;1020143;29;20023;-70
2021/09/28 01:03:12;;;;;;;13.77;11.02;;;;;;;16.13;100.00;96384.19;1023786;29;20085;-69
2021/09/28 01:03:43;;;;;;;15.17;11.60;;;;;;;16.15;100.00;96386.56;1019804;29;20027;-69
2021/09/28 01:04:16;;;;;;;16.23;11.43;;;;;;;16.13;100.00;96380.69;1016161;29;20048;-69
2021/09/28 01:04:46;;;;;;;18.85;11.93;;;;;;;16.11;100.00;96392.53;1019871;29;20031;-69
2021/09/28 01:05:16;;;;;;;17.47;11.00;;;;;;;16.13;100.00;96384.19;1020556;28;20079;-69
2021/09/28 01:05:47;;;;;;;14.00;11.07;;;;;;;16.10;100.00;96390.16;1028223;28;20439;-70
2021/09/28 01:06:17;;;;;;;15.50;11.50;;;;;;;16.13;100.00;96383.38;1027305;28;20023;-70
2021/09/28 01:06:48;;;;;;;14.00;10.90;;;;;;;16.14;100.00;96388.47;1027903;28;20082;-69
2021/09/28 01:07:18;;;;;;;14.90;11.53;;;;;;;16.14;100.00;96380.38;1015876;29;20423;-70
2021/09/28 01:07:48;;;;;;;16.67;12.00;;;;;;;16.15;100.00;96387.38;1016106;29;20112;-69
2021/09/28 01:08:19;;;;;;;13.70;11.77;;;;;;;16.15;100.00;96386.56;1019866;29;20377;-70
2021/09/28 01:08:49;;;;;;;14.30;11.10;;;;;;;16.10;100.00;96377.47;1016149;28;20021;-69
2021/09/28 01:09:20;;;;;;;14.90;11.50;;;;;;;16.12;100.00;96379.84;1027673;28;20035;-69
2021/09/28 01:09:50;;;;;;;13.83;11.77;;;;;;;16.13;100.00;96384.19;1023781;28;20039;-69
2021/09/28 01:10:20;;;;;;;17.97;12.17;;;;;;;16.13;100.00;96381.47;1023631;28;20011;-69
2021/09/28 01:10:51;;;;;;;15.37;11.43;;;;;;;16.10;100.00;96385.56;1023853;29;20027;-70
2021/09/28 01:11:21;;;;;;;15.70;11.47;;;;;;;16.07;100.00;96388.84;1023930;28;20011;-70
2021/09/28 01:11:52;;;;;;;15.30;11.60;;;;;;;16.07;100.00;96388.03;1024747;28;20070;-69
2021/09/28 01:12:23;;;;;;;14.80;11.33;;;;;;;16.09;100.00;96380.47;1024804;28;20022;-69
2021/09/28 01:12:53;;;;;;;15.57;11.70;;;;;;;16.11;100.00;96387.16;1028607;28;20077;-70
2021/09/28 01:13:24;;;;;;;13.60;11.40;;;;;;;16.09;100.00;96383.97;1024568;28;20023;-69
2021/09/28 01:13:54;;;;;;;16.13;11.67;;;;;;;16.11;100.00;96381.75;1024563;28;20019;-69
2021/09/28 01:14:25;;;;;;;16.03;11.33;;;;;;;16.09;100.00;96383.97;1024636;29;20460;-69
2021/09/28 01:14:55;;;;;;;14.03;11.50;;;;;;;16.09;100.00;96386.66;1024723;29;20031;-70
2021/09/28 01:15:26;;;;;;;15.03;11.27;;;;;;;16.08;100.00;96385.06;1024681;28;20035;-70
2021/09/28 01:15:59;;;;;;;15.30;11.73;;;;;;;16.09;100.00;96391.25;1020791;29;20036;-70
2021/09/28 01:16:30;;;;;;;14.93;11.27;;;;;;;16.03;100.00;96390.53;1024661;28;20015;-70
2021/09/28 01:17:00;;;;;;;16.83;11.38;;;;;;;16.01;100.00;96381.13;1029034;28;20106;-70
2021/09/28 01:17:31;;;;;;;14.37;11.43;;;;;;;16.03;100.00;96390.53;1032118;28;20014;-70
2021/09/28 01:18:01;;;;;;;16.00;10.70;;;;;;;16.03;100.00;96387.84;1032618;28;20137;-70
2021/09/28 01:18:35;;;;;;;16.00;12.50;;;;;;;16.03;100.00;96382.44;1032570;28;20025;-70
2021/09/28 01:19:06;;;;;;;15.27;11.40;;;;;;;16.02;100.00;96382.72;1032647;28;20040;-70
2021/09/28 01:19:36;;;;;;;13.50;11.00;;;;;;;16.02;100.00;96380.84;1028489;28;20027;-70
2021/09/28 01:20:07;;;;;;;15.33;11.23;;;;;;;16.04;100.00;96380.56;1028681;28;20023;-70
2021/09/28 01:20:37;;;;;;;17.03;12.50;;;;;;;16.04;100.00;96391.34;1028496;28;20445;-70
2021/09/28 01:21:10;;;;;;;15.10;11.83;;;;;;;16.01;100.00;96391.91;1016756;29;20498;-70
2021/09/28 01:21:40;;;;;;;14.63;11.32;;;;;;;16.01;100.00;96381.94;1016565;29;20020;-70
2021/09/28 01:22:12;;;;;;;17.00;10.93;;;;;;;15.99;100.00;96380.63;1012785;29;20025;-70
2021/09/28 01:22:42;;;;;;;17.20;11.20;;;;;;;15.99;100.00;96384.13;1012759;29;20123;-70
2021/09/28 01:23:13;;;;;;;13.97;11.33;;;;;;;15.95;100.00;96385.81;1016730;29;20363;-70
2021/09/28 01:23:46;;;;;;;17.00;10.97;;;;;;;15.97;100.00;96391.72;1020626;29;20031;-70
2021/09/28 01:24:16;;;;;;;13.93;10.60;;;;;;;15.98;100.00;96389.81;1017078;29;20028;-70
2021/09/28 01:24:47;;;;;;;17.60;11.50;;;;;;;15.93;100.00;96387.22;1020688;29;20020;-70
2021/09/28 01:25:18;;;;;;;14.93;11.73;;;;;;;15.92;100.00;96385.59;1020678;29;20103;-70
2021/09/28 01:25:48;;;;;;;15.13;10.97;;;;;;;15.93;100.00;96381.81;1016699;29;20577;-70
2021/09/28 01:26:23;;;;;;;15.40;11.43;;;;;;;15.91;100.00;96384.00;1020682;28;20027;-69
2021/09/28 01:26:53;;;;;;;16.13;11.02;;;;;;;15.92;100.00;96383.72;1031076;28;20038;-70
2021/09/28 01:27:24;;;;;;;15.63;12.10;;;;;;;15.96;100.00;96387.41;1025125;28;20400;-70
2021/09/28 01:27:54;;;;;;;14.13;11.07;;;;;;;15.98;100.00;96385.22;1024530;29;20022;-70
2021/09/28 01:28:24;;;;;;;13.70;10.93;;;;;;;15.98;100.00;96384.44;1024571;29;20023;-70
2021/09/28 01:28:55;;;;;;;13.87;10.73;;;;;;;15.98;100.00;96390.63;1024492;28;20063;-70
2021/09/28 01:29:26;;;;;;;15.20;11.57;;;;;;;15.99;100.00;96386.03;1028609;28;20061;-70
2021/09/28 01:29:56;;;;;;;15.40;11.00;;;;;;;15.98;100.00;96387.13;1028563;28;20460;-70
2021/09/28 01:30:27;;;;;;;14.80;10.50;;;;;;;15.97;100.00;96382.81;1024571;29;20443;-70
2021/09/28 01:30:58;;;;;;;16.97;11.17;;;;;;;15.95;100.00;96387.69;1024617;29;20026;-70
2021/09/28 01:31:29;;;;;;;15.63;11.05;;;;;;;15.91;100.00;96381.28;1016619;29;20437;-70
2021/09/28 01:31:59;;;;;;;14.10;11.37;;;;;;;15.91;100.00;96390.19;1020589;29;20143;-70
2021/09/28 01:32:29;;;;;;;21.27;11.20;;;;;;;15.90;100.00;96388.59;1020608;29;20078;-69
2021/09/28 01:33:00;;;;;;;16.70;11.80;;;;;;;15.95;100.00;96391.19;1020595;29;20028;-70
2021/09/28 01:33:30;;;;;;;17.67;11.67;;;;;;;15.93;100.00;96385.31;1016643;29;20080;-70
2021/09/28 01:34:01;;;;;;;15.20;12.30;;;;;;;15.94;100.00;96388.81;1016543;29;20035;-69
2021/09/28 01:34:31;;;;;;;16.50;11.27;;;;;;;15.89;100.00;96396.97;1012883;29;20032;-71
2021/09/28 01:35:02;;;;;;;16.40;11.00;;;;;;;15.89;100.00;96381.59;1020737;28;20022;-70
2021/09/28 01:35:35;;;;;;;15.50;12.38;;;;;;;15.92;100.00;96394.50;1028513;28;20074;-69
2021/09/28 01:36:05;;;;;;;14.45;10.98;;;;;;;15.95;100.00;96388.50;1024419;29;20083;-69
2021/09/28 01:36:36;;;;;;;16.40;10.93;;;;;;;15.95;100.00;96388.50;1020377;29;20038;-69
2021/09/28 01:37:06;;;;;;;16.50;11.57;;;;;;;15.97;100.00;96390.91;1020470;29;20028;-69
2021/09/28 01:37:36;;;;;;;14.17;11.50;;;;;;;15.97;100.00;96391.72;1020562;29;20023;-69
2021/09/28 01:38:07;;;;;;;16.93;12.30;;;;;;;15.97;100.00;96389.03;1012656;29;20024;-69
2021/09/28 01:38:38;;;;;;;15.80;11.30;;;;;;;15.97;100.00;96393.59;1012630;29;20447;-69
2021/09/28 01:39:08;;;;;;;14.53;11.60;;;;;;;15.95;100.00;96385.00;1012754;29;20016;-69
2021/09/28 01:39:39;;;;;;;15.97;11.63;;;;;;;15.90;100.00;96382.41;1012800;29;20017;-69
2021/09/28 01:40:10;;;;;;;16.20;11.97;;;;;;;15.93;100.00;96390.69;1012751;29;20028;-70
2021/09/28 01:40:40;;;;;;;15.43;12.00;;;;;;;15.90;100.00;96393.19;1012650;29;20036;-69
2021/09/28 01:41:11;;;;;;;14.53;11.97;;;;;;;15.91;100.00;96384.78;1020543;29;20035;-70
2021/09/28 01:41:41;;;;;;;15.03;11.23;;;;;;;15.92;100.00;96391.81;1012612;29;20035;-69
2021/09/28 01:42:12;;;;;;;15.37;11.97;;;;;;;15.92;100.00;96399.88;1020488;29;20051;-69
2021/09/28 01:42:42;;;;;;;16.30;11.00;;;;;;;15.90;100.00;96388.59;1016668;29;20028;-69
2021/09/28 01:43:14;;;;;;;18.70;12.67;;;;;;;15.93;100.00;96388.00;1020487;29;20083;-69
2021/09/28 01:43:45;;;;;;;16.52;12.35;;;;;;;15.92;100.00;96394.50;1016856;29;20024;-70
2021/09/28 01:44:16;;;;;;;16.10;11.40;;;;;;;15.91;100.00;96379.41;1020580;29;20035;-70
2021/09/28 01:44:47;;;;;;;14.95;11.32;;;;;;;15.87;100.00;96389.19;1020532;29;20414;-69
2021/09/28 01:45:17;;;;;;;16.80;11.40;;;;;;;15.90;100.00;96396.66;1021258;28;20028;-69
2021/09/28 01:45:56;;;;;;;15.10;12.20;;;;;;;15.91;100.00;96389.38;1028538;28;20027;-69
2021/09/28 01:46:26;;;;;;;19.90;12.35;;;;;;;15.86;100.00;96390.25;1032403;28;20023;-69
2021/09/28 01:46:57;;;;;;;15.07;11.63;;;;;;;15.89;100.00;96395.06;1032174;28;20476;-71
2021/09/28 01:47:27;;;;;;;15.43;11.50;;;;;;;15.88;100.00;96388.09;1032545;28;20049;-69
2021/09/28 01:47:58;;;;;;;16.43;11.53;;;;;;;15.89;100.00;96395.06;1024515;29;20432;-69
2021/09/28 01:48:50;;;;;;;15.13;11.97;;;;;;;15.87;100.00;96391.88;1024584;28;20639;-69
2021/09/28 01:49:20;;;;;;;14.68;11.57;;;;;;;15.86;100.00;96391.06;1024461;29;20023;-70
2021/09/28 01:49:50;;;;;;;17.37;11.50;;;;;;;15.88;100.00;96392.69;1030334;28;20061;-70
2021/09/28 01:50:21;;;;;;;14.93;11.10;;;;;;;15.88;100.00;96393.47;1032504;28;20037;-70
2021/09/28 01:50:51;;;;;;;15.27;11.43;;;;;;;15.91;100.00;96397.47;1024552;28;20023;-70
2021/09/28 01:51:22;;;;;;;14.07;10.97;;;;;;;15.89;100.00;96387.00;1024450;29;20027;-69
2021/09/28 01:51:52;;;;;;;13.83;10.40;;;;;;;15.89;100.00;96395.06;1016613;29;20024;-70
2021/09/28 01:52:23;;;;;;;13.80;11.60;;;;;;;15.88;100.00;96395.38;1016454;29;20028;-70
2021/09/28 01:52:53;;;;;;;15.83;11.23;;;;;;;15.88;100.00;96392.69;1020555;29;20381;-70
2021/09/28 01:53:23;;;;;;;15.80;11.17;;;;;;;15.88;100.00;96382.69;1020539;29;20479;-70
2021/09/28 01:53:54;;;;;;;14.93;11.33;;;;;;;15.85;100.00;96389.47;1024439;28;20023;-69
2021/09/28 01:54:24;;;;;;;13.17;10.77;;;;;;;15.83;100.00;96397.06;1028455;28;20043;-69
2021/09/28 01:54:55;;;;;;;14.90;11.27;;;;;;;15.84;100.00;96395.16;1032404;28;20541;-68
2021/09/28 01:55:25;;;;;;;13.97;10.53;;;;;;;15.82;100.00;96395.44;1032512;28;20112;-68
2021/09/28 01:55:56;;;;;;;17.43;11.63;;;;;;;15.77;100.00;96398.22;1032480;28;20054;-69
2021/09/28 01:56:26;;;;;;;13.57;10.57;;;;;;;15.80;100.00;96397.63;1024453;28;20377;-69
2021/09/28 01:56:56;;;;;;;17.63;11.53;;;;;;;15.80;100.00;96403.00;1020391;29;20429;-69
2021/09/28 01:57:27;;;;;;;16.70;11.40;;;;;;;15.81;100.00;96399.22;1015275;29;20066;-69
2021/09/28 01:57:58;;;;;;;15.40;11.07;;;;;;;15.78;100.00;96396.31;1016642;29;20024;-69
2021/09/28 01:58:28;;;;;;;14.97;11.60;;;;;;;15.78;100.00;96396.31;1020465;29;20016;-69
2021/09/28 01:58:59;;;;;;;14.27;10.57;;;;;;;15.77;100.00;96392.84;1024462;29;20267;-69
2021/09/28 01:59:30;;;;;;;14.20;11.18;;;;;;;15.75;100.00;96395.00;1024458;28;20023;-69
2021/09/28 02:00:01;;;;;;;16.43;11.63;;;;;;;15.75;100.00;96402.28;1024841;28;20376;-69
2021/09/28 02:00:31;;;;;;;15.60;11.77;;;;;;;15.72;100.00;96401.00;1032519;28;20083;-69
2021/09/28 02:01:02;;;;;;;16.57;10.97;;;;;;;15.70;100.00;96397.78;1032830;28;20030;-69
2021/09/28 02:01:32;;;;;;;14.10;11.70;;;;;;;15.70;100.00;96395.09;1032748;28;20030;-70
2021/09/28 02:02:03;;;;;;;19.67;11.87;;;;;;;15.71;100.00;96395.88;1032813;28;20049;-69
2021/09/28 02:02:36;;;;;;;14.90;11.03;;;;;;;15.72;100.00;96397.50;1032794;28;20085;-71
2021/09/28 02:03:07;;;;;;;16.70;11.73;;;;;;;15.73;100.00;96393.72;1032828;28;20527;-70
2021/09/28 02:03:40;;;;;;;13.23;10.80;;;;;;;15.74;100.00;96392.63;1032478;28;20069;-70
2021/09/28 02:04:11;;;;;;;16.55;10.90;;;;;;;15.77;100.00;96394.72;1028450;28;20019;-70
2021/09/28 02:04:41;;;;;;;13.33;10.30;;;;;;;15.80;100.00;96399.53;1028459;28;20030;-69
2021/09/28 02:05:11;;;;;;;15.50;11.87;;;;;;;15.80;100.00;96399.53;1022298;29;20086;-70
2021/09/28 02:05:43;;;;;;;14.63;10.90;;;;;;;15.77;100.00;96397.44;1024899;28;20046;-69
2021/09/28 02:06:14;;;;;;;15.77;11.70;;;;;;;15.71;100.00;96396.69;1024467;29;20460;-69
2021/09/28 02:06:44;;;;;;;16.33;11.15;;;;;;;15.75;100.00;96394.22;1024708;28;20374;-69
2021/09/28 02:07:14;;;;;;;15.60;11.27;;;;;;;15.75;100.00;96399.59;1024315;29;20035;-69
2021/09/28 02:07:45;;;;;;;16.43;11.13;;;;;;;15.73;100.00;96402.59;1020721;29;20024;-69
2021/09/28 02:08:15;;;;;;;14.63;10.97;;;;;;;15.75;100.00;96394.22;1024289;29;20027;-69
2021/09/28 02:08:46;;;;;;;15.23;11.70;;;;;;;15.73;100.00;96397.19;1020557;29;20048;-69
2021/09/28 02:09:16;;;;;;;15.47;10.87;;;;;;;15.73;100.00;96405.28;1024501;28;20031;-69
2021/09/28 02:09:46;;;;;;;17.73;12.10;;;;;;;15.74;100.00;96398.00;1024310;28;20050;-69
2021/09/28 02:10:17;;;;;;;15.20;11.53;;;;;;;15.73;100.00;96391.03;1016519;29;20028;-70
2021/09/28 02:10:47;;;;;;;14.73;11.70;;;;;;;15.68;100.00;96394.59;1020512;29;20366;-70
2021/09/28 02:11:18;;;;;;;16.13;11.77;;;;;;;15.69;100.00;96398.06;1012544;29;20035;-70
2021/09/28 02:11:48;;;;;;;15.23;11.27;;;;;;;15.71;100.00;96399.38;1016679;29;20036;-70
2021/09/28 02:12:19;;;;;;;16.30;11.40;;;;;;;15.72;100.00;96398.31;1024463;29;20015;-70
2021/09/28 02:12:50;;;;;;;14.77;11.23;;;;;;;15.71;100.00;96396.69;1024477;28;20035;-70
2021/09/28 02:13:20;;;;;;;14.43;11.48;;;;;;;15.70;100.00;96397.78;1028766;28;20404;-70
2021/09/28 02:13:51;;;;;;;18.93;11.33;;;;;;;15.72;100.00;96400.19;1028678;28;20023;-70
2021/09/28 02:14:26;;;;;;;16.43;11.53;;;;;;;15.69;100.00;96395.38;1028724;28;20026;-70
2021/09/28 02:14:56;;;;;;;18.20;12.15;;;;;;;15.71;100.00;96403.97;1028299;28;20499;-70
2021/09/28 02:15:27;;;;;;;14.20;11.23;;;;;;;15.68;100.00;96401.88;1025779;28;20030;-70
2021/09/28 02:15:57;;;;;;;14.07;11.60;;;;;;;15.66;100.00;96396.78;1028392;28;20027;-70
2021/09/28 02:16:27;;;;;;;18.10;11.80;;;;;;;15.64;100.00;96404.34;1029002;28;20056;-70
2021/09/28 02:16:58;;;;;;;17.73;11.70;;;;;;;15.65;100.00;96405.13;1028458;28;20061;-70
2021/09/28 02:17:28;;;;;;;16.70;11.83;;;;;;;15.65;100.00;96408.63;1024318;29;20035;-70
2021/09/28 02:17:59;;;;;;;14.90;11.73;;;;;;;15.68;100.00;96407.25;1024395;29;20031;-70
2021/09/28 02:18:29;;;;;;;15.43;12.00;;;;;;;15.62;100.00;96408.41;1024492;28;20019;-70
2021/09/28 02:19:00;;;;;;;17.37;11.57;;;;;;;15.63;100.00;96413.53;1024547;28;20030;-70
2021/09/28 02:19:30;;;;;;;15.90;11.50;;;;;;;15.64;100.00;96408.94;1032431;28;20073;-70
2021/09/28 02:20:01;;;;;;;19.03;12.30;;;;;;;15.64;100.00;96414.31;1032436;28;20025;-70
2021/09/28 02:20:31;;;;;;;15.07;11.00;;;;;;;15.62;100.00;96405.72;1032346;28;20033;-69